createdAt,value
2023-05-02T00:02:26.154Z,100.00
2023-05-02T00:04:54.712Z,100.00
2023-05-02T00:07:22.918Z,100.00
2023-05-02T00:09:51.554Z,100.00
2023-05-02T00:12:20.778Z,100.00
2023-05-02T00:14:49.109Z,100.00
2023-05-02T00:17:20.785Z,100.00
2023-05-02T00:19:49.099Z,100.00
2023-05-02T00:22:17.549Z,100.00
2023-05-02T00:24:45.558Z,100.00
2023-05-02T00:27:14.455Z,100.00
2023-05-02T00:29:43.033Z,100.00
2023-05-02T00:32:11.258Z,100.00
2023-05-02T00:34:41.256Z,100.00
2023-05-02T00:37:09.571Z,100.00
2023-05-02T00:39:41.137Z,100.00
2023-05-02T00:42:09.791Z,100.00
2023-05-02T00:44:38.240Z,100.00
2023-05-02T00:47:06.846Z,100.00
2023-05-02T00:49:35.079Z,100.00
2023-05-02T00:52:04.683Z,100.00
2023-05-02T00:54:32.893Z,100.00
2023-05-02T00:57:01.238Z,100.00
2023-05-02T00:59:30.349Z,100.00
2023-05-02T01:02:06.764Z,100.00
2023-05-02T01:04:45.772Z,100.00
2023-05-02T01:07:37.214Z,100.00
2023-05-02T01:10:16.469Z,100.00
2023-05-02T01:12:52.780Z,100.00
2023-05-02T01:15:23.714Z,100.00
2023-05-02T01:17:53.761Z,100.00
2023-05-02T01:20:24.978Z,100.00
2023-05-02T01:22:57.517Z,100.00
2023-05-02T01:25:38.594Z,100.00
2023-05-02T01:28:18.292Z,100.00
2023-05-02T01:30:51.774Z,100.00
2023-05-02T01:33:21.759Z,100.00
2023-05-02T01:35:53.050Z,100.00
2023-05-02T01:38:23.770Z,100.00
2023-05-02T01:40:53.295Z,100.00
2023-05-02T01:43:22.515Z,100.00
2023-05-02T01:45:54.568Z,100.00
2023-05-02T01:48:24.743Z,100.00
2023-05-02T01:50:53.554Z,100.00
2023-05-02T01:53:24.085Z,100.00
2023-05-02T01:55:54.045Z,100.00
2023-05-02T01:58:23.115Z,100.00
2023-05-02T02:00:54.085Z,100.00
2023-05-02T02:03:24.221Z,100.00
2023-05-02T02:05:55.533Z,100.00
2023-05-02T02:08:24.097Z,100.00
2023-05-02T02:10:58.906Z,100.00
2023-05-02T02:13:34.202Z,100.00
2023-05-02T02:16:07.341Z,100.00
2023-05-02T02:18:39.801Z,100.00
2023-05-02T02:21:10.957Z,100.00
2023-05-02T02:23:43.560Z,100.00
2023-05-02T02:26:17.156Z,100.00
2023-05-02T02:28:45.657Z,100.00
2023-05-02T02:31:15.816Z,100.00
2023-05-02T02:33:44.612Z,100.00
2023-05-02T02:36:16.962Z,100.00
2023-05-02T02:38:51.818Z,100.00
2023-05-02T02:41:27.693Z,100.00
2023-05-02T02:44:05.996Z,100.00
2023-05-02T02:46:48.683Z,100.00
2023-05-02T02:49:28.519Z,100.00
2023-05-02T02:52:04.177Z,100.00
2023-05-02T02:54:40.399Z,100.00
2023-05-02T02:57:17.713Z,100.00
2023-05-02T02:59:52.670Z,100.00
2023-05-02T03:02:24.325Z,100.00
2023-05-02T03:04:55.113Z,100.00
2023-05-02T03:07:23.511Z,100.00
2023-05-02T03:09:51.859Z,100.00
2023-05-02T03:12:20.156Z,100.00
2023-05-02T03:14:48.557Z,100.00
2023-05-02T03:17:16.833Z,100.00
2023-05-02T03:19:47.389Z,100.00
2023-05-02T03:22:15.562Z,100.00
2023-05-02T03:24:43.854Z,100.00
2023-05-02T03:27:12.287Z,100.00
2023-05-02T03:29:40.391Z,100.00
2023-05-02T03:32:08.694Z,100.00
2023-05-02T03:34:39.548Z,100.00
2023-05-02T03:37:09.224Z,100.00
2023-05-02T03:39:37.281Z,100.00
2023-05-02T03:42:05.666Z,100.00
2023-05-02T03:44:33.778Z,100.00
2023-05-02T03:47:03.335Z,100.00
2023-05-02T03:49:31.501Z,100.00
2023-05-02T03:51:59.680Z,100.00
2023-05-02T03:54:29.234Z,100.00
2023-05-02T03:56:58.229Z,100.00
2023-05-02T03:59:27.419Z,100.00
2023-05-02T04:01:55.655Z,100.00
2023-05-02T04:04:23.795Z,100.00
2023-05-02T04:06:52.114Z,100.00
2023-05-02T04:09:25.236Z,100.00
2023-05-02T04:11:55.376Z,100.00
2023-05-02T04:14:23.630Z,100.00
2023-05-02T04:16:52.377Z,100.00
2023-05-02T04:19:20.801Z,100.00
2023-05-02T04:21:48.940Z,100.00
2023-05-02T04:24:17.080Z,100.00
2023-05-02T04:26:46.306Z,100.00
2023-05-02T04:29:15.802Z,100.00
2023-05-02T04:31:44.316Z,100.00
2023-05-02T04:34:12.604Z,100.00
2023-05-02T04:36:40.693Z,100.00
2023-05-02T04:39:08.874Z,100.00
2023-05-02T04:41:37.087Z,100.00
2023-05-02T04:44:05.335Z,100.00
2023-05-02T04:46:34.986Z,100.00
2023-05-02T04:49:05.824Z,100.00
2023-05-02T04:51:34.122Z,100.00
2023-05-02T04:54:02.217Z,100.00
2023-05-02T04:56:30.239Z,100.00
2023-05-02T04:58:58.433Z,100.00
2023-05-02T05:01:28.095Z,100.00
2023-05-02T05:03:58.174Z,98.75
2023-05-02T05:06:26.578Z,98.44
2023-05-02T05:08:54.709Z,97.42
2023-05-02T05:11:23.413Z,95.28
2023-05-02T05:13:51.783Z,93.15
2023-05-02T05:16:19.880Z,91.18
2023-05-02T05:18:49.371Z,89.45
2023-05-02T05:21:18.837Z,89.07
2023-05-02T05:23:47.779Z,87.74
2023-05-02T05:26:17.296Z,86.59
2023-05-02T05:28:45.874Z,86.07
2023-05-02T05:31:16.936Z,83.27
2023-05-02T05:33:45.506Z,84.19
2023-05-02T05:36:15.096Z,81.19
2023-05-02T05:38:44.782Z,80.43
2023-05-02T05:41:12.932Z,79.08
2023-05-02T05:43:40.955Z,76.72
2023-05-02T05:46:09.152Z,74.48
2023-05-02T05:48:37.279Z,73.42
2023-05-02T05:51:06.520Z,72.54
2023-05-02T05:53:34.735Z,72.03
2023-05-02T05:56:11.212Z,68.89
2023-05-02T05:58:40.035Z,68.64
2023-05-02T06:01:09.326Z,67.53
2023-05-02T06:03:37.614Z,65.99
2023-05-02T06:06:06.509Z,66.20
2023-05-02T06:08:34.760Z,65.12
2023-05-02T06:11:02.909Z,64.18
2023-05-02T06:13:32.506Z,64.17
2023-05-02T06:16:02.653Z,64.24
2023-05-02T06:18:31.625Z,64.00
2023-05-02T06:20:59.820Z,62.67
2023-05-02T06:23:27.938Z,61.50
2023-05-02T06:25:56.179Z,60.78
2023-05-02T06:28:24.530Z,60.42
2023-05-02T06:31:01.305Z,59.35
2023-05-02T06:33:29.668Z,59.44
2023-05-02T06:35:59.259Z,58.26
2023-05-02T06:38:29.728Z,58.49
2023-05-02T06:40:57.983Z,57.79
2023-05-02T06:43:26.140Z,57.29
2023-05-02T06:45:55.609Z,57.00
2023-05-02T06:48:25.252Z,55.65
2023-05-02T06:50:54.123Z,55.31
2023-05-02T06:53:22.356Z,54.28
2023-05-02T06:55:51.199Z,54.65
2023-05-02T06:58:19.344Z,54.18
2023-05-02T07:00:48.889Z,53.84
2023-05-02T07:03:17.423Z,53.60
2023-05-02T07:05:46.915Z,53.48
2023-05-02T07:08:15.044Z,53.56
2023-05-02T07:10:43.220Z,52.43
2023-05-02T07:13:11.403Z,50.84
2023-05-02T07:15:39.719Z,50.80
2023-05-02T07:18:07.855Z,49.42
2023-05-02T07:20:36.077Z,48.42
2023-05-02T07:23:05.535Z,49.23
2023-05-02T07:25:33.853Z,48.49
2023-05-02T07:28:02.027Z,48.51
2023-05-02T07:30:30.286Z,48.68
2023-05-02T07:32:58.480Z,48.69
2023-05-02T07:35:26.924Z,46.14
2023-05-02T07:37:55.148Z,46.79
2023-05-02T07:40:24.770Z,46.41
2023-05-02T07:42:52.944Z,45.11
2023-05-02T07:45:21.352Z,44.76
2023-05-02T07:47:49.705Z,44.95
2023-05-02T07:50:18.018Z,44.99
2023-05-02T07:52:46.108Z,43.45
2023-05-02T07:55:15.230Z,42.45
2023-05-02T07:57:44.676Z,41.22
2023-05-02T08:00:13.798Z,41.76
2023-05-02T08:02:42.871Z,40.84
2023-05-02T08:05:11.410Z,38.24
2023-05-02T08:07:39.784Z,39.84
2023-05-02T08:10:09.390Z,38.68
2023-05-02T08:12:40.262Z,38.39
2023-05-02T08:15:14.064Z,38.73
2023-05-02T08:17:42.267Z,37.95
2023-05-02T08:20:11.082Z,38.29
2023-05-02T08:22:39.328Z,38.69
2023-05-02T08:25:08.169Z,39.41
2023-05-02T08:27:36.514Z,39.24
2023-05-02T08:30:05.318Z,39.27
2023-05-02T08:32:35.411Z,38.87
2023-05-02T08:35:03.795Z,37.83
2023-05-02T08:37:32.402Z,36.42
2023-05-02T08:40:01.862Z,37.77
2023-05-02T08:42:33.117Z,36.11
2023-05-02T08:45:02.095Z,36.50
2023-05-02T08:47:33.172Z,34.83
2023-05-02T08:50:04.060Z,37.28
2023-05-02T08:52:33.808Z,33.72
2023-05-02T08:55:03.834Z,36.22
2023-05-02T08:57:32.465Z,35.43
2023-05-02T09:00:00.684Z,36.53
2023-05-02T09:02:59.043Z,34.58
2023-05-02T09:05:28.830Z,33.86
2023-05-02T09:07:57.081Z,33.73
2023-05-02T09:10:29.685Z,34.23
2023-05-02T09:12:57.772Z,34.14
2023-05-02T09:15:25.910Z,35.59
2023-05-02T09:17:54.238Z,35.45
2023-05-02T09:20:22.735Z,36.18
2023-05-02T09:22:54.014Z,33.88
2023-05-02T09:25:22.179Z,32.37
2023-05-02T09:27:52.423Z,31.43
2023-05-02T09:30:22.433Z,33.72
2023-05-02T09:32:55.236Z,33.28
2023-05-02T09:35:26.679Z,34.00
2023-05-02T09:37:58.065Z,34.67
2023-05-02T09:40:28.192Z,32.03
2023-05-02T09:42:57.933Z,33.41
2023-05-02T09:45:27.899Z,33.71
2023-05-02T09:47:56.002Z,34.21
2023-05-02T09:50:40.393Z,33.53
2023-05-02T09:53:11.954Z,32.93
2023-05-02T09:55:40.118Z,31.46
2023-05-02T09:58:08.256Z,31.83
2023-05-02T10:00:43.762Z,32.68
2023-05-02T10:03:12.741Z,31.34
2023-05-02T10:05:41.372Z,32.95
2023-05-02T10:08:11.386Z,32.28
2023-05-02T10:10:40.768Z,30.02
2023-05-02T10:13:10.066Z,29.39
2023-05-02T10:15:43.884Z,28.55
2023-05-02T10:18:15.531Z,28.00
2023-05-02T10:20:49.938Z,30.74
2023-05-02T10:23:21.372Z,30.06
2023-05-02T10:25:50.375Z,30.69
2023-05-02T10:28:18.791Z,31.33
2023-05-02T10:30:47.849Z,32.59
2023-05-02T10:33:17.564Z,30.59
2023-05-02T10:35:46.990Z,31.17
2023-05-02T10:38:19.302Z,29.65
2023-05-02T10:40:59.174Z,30.01
2023-05-02T10:43:29.994Z,29.07
2023-05-02T10:45:58.409Z,29.28
2023-05-02T10:48:28.026Z,29.23
2023-05-02T10:50:57.757Z,28.69
2023-05-02T10:53:27.909Z,30.30
2023-05-02T10:56:18.378Z,30.18
2023-05-02T10:58:48.941Z,29.29
2023-05-02T11:01:40.375Z,30.76
2023-05-02T11:04:10.198Z,30.69
2023-05-02T11:06:59.347Z,29.77
2023-05-02T11:09:36.676Z,28.82
2023-05-02T11:12:07.226Z,31.48
2023-05-02T11:14:51.036Z,29.51
2023-05-02T11:17:21.150Z,30.30
2023-05-02T11:20:27.991Z,26.73
2023-05-02T11:22:58.334Z,29.50
2023-05-02T11:25:34.486Z,28.08
2023-05-02T11:28:06.557Z,27.08
2023-05-02T11:30:44.038Z,27.59
2023-05-02T11:33:20.309Z,26.46
2023-05-02T11:35:51.818Z,26.88
2023-05-02T11:38:23.097Z,25.36
2023-05-02T11:40:53.299Z,28.75
2023-05-02T11:43:25.409Z,26.30
2023-05-02T11:45:54.702Z,27.21
2023-05-02T11:48:27.306Z,27.88
2023-05-02T11:50:57.559Z,28.65
2023-05-02T11:53:28.941Z,26.90
2023-05-02T11:55:58.778Z,26.49
2023-05-02T11:58:32.323Z,24.44
2023-05-02T12:01:01.399Z,27.11
2023-05-02T12:03:31.402Z,24.34
2023-05-02T12:06:10.255Z,28.11
2023-05-02T12:08:38.779Z,27.05
2023-05-02T12:11:06.952Z,25.77
2023-05-02T12:13:36.667Z,23.16
2023-05-02T12:16:05.123Z,25.43
2023-05-02T12:18:34.266Z,25.31
2023-05-02T12:21:02.529Z,27.67
2023-05-02T12:23:30.814Z,25.39
2023-05-02T12:26:00.603Z,26.90
2023-05-02T12:28:28.826Z,22.79
2023-05-02T12:30:58.333Z,22.41
2023-05-02T12:33:26.641Z,23.22
2023-05-02T12:35:54.814Z,25.66
2023-05-02T12:38:23.572Z,27.10
2023-05-02T12:40:53.645Z,27.50
2023-05-02T12:43:22.394Z,23.44
2023-05-02T12:45:53.930Z,25.13
2023-05-02T12:48:25.745Z,20.91
2023-05-02T12:50:55.493Z,23.21
2023-05-02T12:53:40.913Z,21.03
2023-05-02T12:56:10.454Z,23.06
2023-05-02T12:58:43.225Z,23.98
2023-05-02T13:01:11.976Z,21.69
2023-05-02T13:03:42.099Z,20.09
2023-05-02T13:06:11.173Z,16.25
2023-05-02T13:08:39.938Z,17.50
2023-05-02T13:11:08.057Z,14.77
2023-05-02T13:13:36.348Z,12.71
2023-05-02T13:16:05.248Z,13.09
2023-05-02T13:21:03.069Z,9.40
2023-05-02T13:23:31.160Z,9.86
2023-05-02T13:25:59.291Z,10.76
2023-05-02T13:28:27.951Z,9.72
2023-05-02T13:30:56.185Z,9.84
2023-05-02T13:33:24.472Z,8.96
2023-05-02T13:35:52.623Z,9.19
2023-05-02T13:38:22.606Z,10.70
2023-05-02T13:40:51.566Z,9.12
2023-05-02T13:43:19.706Z,9.35
2023-05-02T13:45:49.092Z,8.39
2023-05-02T13:48:17.539Z,9.22
2023-05-02T13:50:45.588Z,9.10
2023-05-02T13:53:15.055Z,8.33
2023-05-02T13:55:44.684Z,7.46
2023-05-02T13:58:12.847Z,8.27
2023-05-02T14:00:40.952Z,8.27
2023-05-02T14:03:11.314Z,7.14
2023-05-02T14:05:43.633Z,7.71
2023-05-02T14:08:12.090Z,7.60
2023-05-02T14:10:40.337Z,8.24
2023-05-02T14:13:09.905Z,7.89
2023-05-02T14:15:38.357Z,7.09
2023-05-02T14:18:06.533Z,7.02
2023-05-02T14:20:34.673Z,7.06
2023-05-02T14:23:03.722Z,6.40
2023-05-02T14:25:32.809Z,6.66
2023-05-02T14:28:01.802Z,6.17
2023-05-02T14:30:32.296Z,6.19
2023-05-02T14:33:00.463Z,6.95
2023-05-02T14:35:28.962Z,7.25
2023-05-02T14:37:57.098Z,7.20
2023-05-02T14:40:25.180Z,7.87
2023-05-02T14:42:53.347Z,6.79
2023-05-02T14:45:21.544Z,7.09
2023-05-02T14:47:51.684Z,6.22
2023-05-02T14:50:20.006Z,6.69
2023-05-02T14:52:48.187Z,6.32
2023-05-02T14:55:16.205Z,7.86
2023-05-02T14:57:44.392Z,8.46
2023-05-02T15:00:13.527Z,8.03
2023-05-02T15:02:41.943Z,8.10
2023-05-02T15:05:13.118Z,7.79
2023-05-02T15:07:41.382Z,7.42
2023-05-02T15:10:10.457Z,9.57
2023-05-02T15:12:38.482Z,8.99
2023-05-02T15:15:09.146Z,8.04
2023-05-02T15:17:37.206Z,8.80
2023-05-02T15:20:06.070Z,9.71
2023-05-02T15:22:35.545Z,10.32
2023-05-02T15:25:05.362Z,11.22
2023-05-02T15:27:33.657Z,12.48
2023-05-02T15:30:03.244Z,13.18
2023-05-02T15:32:31.887Z,13.90
2023-05-02T15:34:59.993Z,13.63
2023-05-02T15:37:28.078Z,14.22
2023-05-02T15:39:57.568Z,14.69
2023-05-02T15:42:25.659Z,14.69
2023-05-02T15:44:54.152Z,14.95
2023-05-02T15:47:23.348Z,16.36
2023-05-02T15:49:53.967Z,15.12
2023-05-02T15:52:22.795Z,15.07
2023-05-02T15:54:51.978Z,14.46
2023-05-02T15:57:21.557Z,14.86
2023-05-02T15:59:50.034Z,14.90
2023-05-02T16:02:18.058Z,15.16
2023-05-02T16:04:46.564Z,15.85
2023-05-02T16:07:14.833Z,16.04
2023-05-02T16:09:42.858Z,16.21
2023-05-02T16:12:11.185Z,17.43
2023-05-02T16:14:40.723Z,17.92
2023-05-02T16:17:08.978Z,18.85
2023-05-02T16:19:37.081Z,19.58
2023-05-02T16:22:05.066Z,19.93
2023-05-02T16:24:33.030Z,20.27
2023-05-02T16:27:01.943Z,20.83
2023-05-02T16:29:30.049Z,21.64
2023-05-02T16:31:59.817Z,21.91
2023-05-02T16:34:28.170Z,22.06
2023-05-02T16:36:56.518Z,22.41
2023-05-02T16:39:24.666Z,22.33
2023-05-02T16:41:52.675Z,22.91
2023-05-02T16:44:20.720Z,23.24
2023-05-02T16:46:48.737Z,23.67
2023-05-02T16:49:18.191Z,23.61
2023-05-02T16:51:49.000Z,23.47
2023-05-02T16:54:17.181Z,24.34
2023-05-02T16:56:45.291Z,24.17
2023-05-02T16:59:13.438Z,23.68
2023-05-02T17:01:41.517Z,24.09
2023-05-02T17:04:09.918Z,24.17
2023-05-02T17:06:39.538Z,25.42
2023-05-02T17:09:07.705Z,27.05
2023-05-02T17:11:36.326Z,28.03
2023-05-02T17:14:04.869Z,27.41
2023-05-02T17:16:33.086Z,28.04
2023-05-02T17:19:01.297Z,28.72
2023-05-02T17:21:29.406Z,29.16
2023-05-02T17:23:58.906Z,30.11
2023-05-02T17:26:27.756Z,30.73
2023-05-02T17:28:55.877Z,31.31
2023-05-02T17:31:24.237Z,32.32
2023-05-02T17:33:52.395Z,32.27
2023-05-02T17:36:20.417Z,32.16
2023-05-02T17:38:48.556Z,32.69
2023-05-02T17:41:18.067Z,32.70
2023-05-02T17:43:46.904Z,32.83
2023-05-02T17:46:15.358Z,33.34
2023-05-02T17:48:44.656Z,33.68
2023-05-02T17:51:13.063Z,33.47
2023-05-02T17:53:42.610Z,34.04
2023-05-02T17:56:10.750Z,34.33
2023-05-02T17:58:40.112Z,34.78
2023-05-02T18:01:08.550Z,35.05
2023-05-02T18:03:36.962Z,35.22
2023-05-02T18:06:05.589Z,35.11
2023-05-02T18:08:33.802Z,35.19
2023-05-02T18:11:03.461Z,35.72
2023-05-02T18:13:32.496Z,35.80
2023-05-02T18:16:02.611Z,36.10
2023-05-02T18:18:31.066Z,38.34
2023-05-02T18:20:59.615Z,38.22
2023-05-02T18:23:27.881Z,38.50
2023-05-02T18:25:56.188Z,38.73
2023-05-02T18:28:27.214Z,39.39
2023-05-02T18:30:55.257Z,39.56
2023-05-02T18:33:24.797Z,39.85
2023-05-02T18:35:53.106Z,40.37
2023-05-02T18:38:21.136Z,40.48
2023-05-02T18:40:49.314Z,40.80
2023-05-02T18:43:17.947Z,41.18
2023-05-02T18:45:48.531Z,41.24
2023-05-02T18:48:16.843Z,41.09
2023-05-02T18:50:46.677Z,40.97
2023-05-02T18:53:15.398Z,40.71
2023-05-02T18:55:43.520Z,41.21
2023-05-02T18:58:11.588Z,41.69
2023-05-02T19:00:39.752Z,41.90
2023-05-02T19:03:08.039Z,42.02
2023-05-02T19:05:36.201Z,41.98
2023-05-02T19:08:06.413Z,42.26
2023-05-02T19:10:34.743Z,42.27
2023-05-02T19:13:03.912Z,42.26
2023-05-02T19:15:32.040Z,42.37
2023-05-02T19:18:00.625Z,42.82
2023-05-02T19:20:29.959Z,42.75
2023-05-02T19:23:18.331Z,42.83
2023-05-02T19:25:49.494Z,43.13
2023-05-02T19:28:17.785Z,43.59
2023-05-02T19:30:46.432Z,44.02
2023-05-02T19:33:14.689Z,44.21
2023-05-02T19:35:42.712Z,44.68
2023-05-02T19:38:10.870Z,45.44
2023-05-02T19:40:42.274Z,45.70
2023-05-02T19:43:11.781Z,45.66
2023-05-02T19:45:39.983Z,45.63
2023-05-02T19:48:08.459Z,45.93
2023-05-02T19:50:37.898Z,46.03
2023-05-02T19:53:06.064Z,46.46
2023-05-02T19:55:34.240Z,46.68
2023-05-02T19:58:04.442Z,47.22
2023-05-02T20:00:34.291Z,47.83
2023-05-02T20:03:03.283Z,49.33
2023-05-02T20:05:31.613Z,51.63
2023-05-02T20:08:00.233Z,54.24
2023-05-02T20:10:28.982Z,56.66
2023-05-02T20:12:57.124Z,58.51
2023-05-02T20:15:25.878Z,59.08
2023-05-02T20:17:58.113Z,60.42
2023-05-02T20:20:26.654Z,61.04
2023-05-02T20:22:55.404Z,61.44
2023-05-02T20:25:23.981Z,62.66
2023-05-02T20:27:52.857Z,62.47
2023-05-02T20:30:21.433Z,62.41
2023-05-02T20:32:49.985Z,61.46
2023-05-02T20:35:19.840Z,62.12
2023-05-02T20:37:48.763Z,62.14
2023-05-02T20:40:17.085Z,62.39
2023-05-02T20:42:45.420Z,62.36
2023-05-02T20:45:14.700Z,62.16
2023-05-02T20:47:42.976Z,63.03
2023-05-02T20:50:11.738Z,63.54
2023-05-02T20:52:41.524Z,62.19
2023-05-02T20:55:10.258Z,62.53
2023-05-02T20:57:38.489Z,64.58
2023-05-02T21:00:09.083Z,65.00
2023-05-02T21:02:37.262Z,66.00
2023-05-02T21:05:05.844Z,67.05
2023-05-02T21:07:34.129Z,67.26
2023-05-02T21:10:04.887Z,66.49
2023-05-02T21:12:33.654Z,66.76
2023-05-02T21:15:01.955Z,66.73
2023-05-02T21:17:30.745Z,66.55
2023-05-02T21:19:59.052Z,65.98
2023-05-02T21:22:27.792Z,66.04
2023-05-02T21:24:56.265Z,67.01
2023-05-02T21:27:26.242Z,67.65
2023-05-02T21:29:54.653Z,68.54
2023-05-02T21:32:22.792Z,70.34
2023-05-02T21:34:51.025Z,71.57
2023-05-02T21:37:19.235Z,71.73
2023-05-02T21:39:47.510Z,72.85
2023-05-02T21:42:15.783Z,74.44
2023-05-02T21:44:45.508Z,76.50
2023-05-02T21:47:13.855Z,77.45
2023-05-02T21:49:42.078Z,79.34
2023-05-02T21:52:10.312Z,80.33
2023-05-02T21:54:38.408Z,80.93
2023-05-02T21:57:06.489Z,81.88
2023-05-02T21:59:34.525Z,82.16
2023-05-02T22:02:04.131Z,81.97
2023-05-02T22:04:32.428Z,80.70
2023-05-02T22:07:00.753Z,80.70
2023-05-02T22:09:29.914Z,80.08
2023-05-02T22:11:59.197Z,78.75
2023-05-02T22:14:33.745Z,78.83
2023-05-02T22:17:11.323Z,78.23
2023-05-02T22:19:40.724Z,77.60
2023-05-02T22:22:08.849Z,77.72
2023-05-02T22:24:36.993Z,78.62
2023-05-02T22:27:05.204Z,80.45
2023-05-02T22:29:33.238Z,81.10
2023-05-02T22:32:01.495Z,82.44
2023-05-02T22:34:31.071Z,81.76
2023-05-02T22:36:59.146Z,82.15
2023-05-02T22:39:27.815Z,81.32
2023-05-02T22:41:55.917Z,80.60
2023-05-02T22:44:24.245Z,81.30
2023-05-02T22:46:52.398Z,80.69
2023-05-02T22:49:20.618Z,80.97
2023-05-02T22:51:50.337Z,81.18
2023-05-02T22:54:21.461Z,81.16
2023-05-02T22:56:49.621Z,81.39
2023-05-02T22:59:17.825Z,81.59
2023-05-02T23:01:46.061Z,82.06
2023-05-02T23:04:14.208Z,82.72
2023-05-02T23:06:42.476Z,82.74
2023-05-02T23:09:11.941Z,83.92
2023-05-02T23:11:40.017Z,83.85
2023-05-02T23:14:08.146Z,83.81
2023-05-02T23:16:36.339Z,84.62
2023-05-02T23:19:04.484Z,85.35
2023-05-02T23:21:32.685Z,85.67
2023-05-02T23:24:00.800Z,85.96
2023-05-02T23:26:30.629Z,86.55
2023-05-02T23:28:58.699Z,86.49
2023-05-02T23:31:27.097Z,86.28
2023-05-02T23:33:56.093Z,86.07
2023-05-02T23:36:27.286Z,85.88
2023-05-02T23:38:55.555Z,86.09
2023-05-02T23:41:23.650Z,86.55
2023-05-02T23:43:53.070Z,86.25
2023-05-02T23:46:21.137Z,85.55
2023-05-02T23:48:49.197Z,85.37
2023-05-02T23:51:17.287Z,85.52
2023-05-02T23:53:45.369Z,85.35
2023-05-02T23:56:13.409Z,85.74
2023-05-02T23:58:41.463Z,85.65
